createdAt,value
2023-03-06T00:01:02.096Z,71.41
2023-03-06T00:06:03.122Z,71.70
2023-03-06T00:11:05.241Z,71.03
2023-03-06T00:16:07.034Z,71.33
2023-03-06T00:21:08.759Z,70.70
2023-03-06T00:26:11.496Z,70.61
2023-03-06T00:31:14.216Z,70.57
2023-03-06T00:36:14.911Z,70.37
2023-03-06T00:41:16.915Z,70.85
2023-03-06T00:46:17.562Z,70.47
2023-03-06T00:51:19.739Z,70.58
2023-03-06T00:56:21.787Z,70.74
2023-03-06T01:01:23.264Z,70.80
2023-03-06T01:06:24.936Z,71.08
2023-03-06T01:11:27.149Z,71.82
2023-03-06T01:16:28.264Z,70.50
2023-03-06T01:21:28.963Z,70.59
2023-03-06T01:26:31.680Z,70.92
2023-03-06T01:31:32.407Z,71.07
2023-03-06T01:36:33.260Z,71.78
2023-03-06T01:41:37.912Z,72.00
2023-03-06T01:46:42.131Z,71.48
2023-03-06T01:51:48.563Z,71.83
2023-03-06T01:56:55.009Z,71.80
2023-03-06T02:01:57.120Z,72.23
2023-03-06T02:07:00.270Z,71.33
2023-03-06T02:12:02.893Z,71.20
2023-03-06T02:17:04.083Z,70.85
2023-03-06T02:22:06.305Z,71.51
2023-03-06T02:27:10.863Z,71.30
2023-03-06T02:32:11.759Z,71.23
2023-03-06T02:37:12.600Z,71.08
2023-03-06T02:42:20.177Z,70.79
2023-03-06T02:47:21.262Z,70.74
2023-03-06T02:52:25.385Z,70.57
2023-03-06T02:57:27.522Z,70.95
2023-03-06T03:02:29.694Z,70.88
2023-03-06T03:07:30.568Z,70.21
2023-03-06T03:12:33.155Z,70.67
2023-03-06T03:17:36.540Z,71.07
2023-03-06T03:22:37.287Z,70.80
2023-03-06T03:27:40.495Z,71.70
2023-03-06T03:32:41.505Z,72.16
2023-03-06T03:37:43.339Z,71.99
2023-03-06T03:42:45.517Z,72.17
2023-03-06T03:47:47.438Z,72.03
2023-03-06T03:52:48.467Z,72.05
2023-03-06T03:57:50.954Z,71.47
2023-03-06T04:02:52.506Z,72.74
2023-03-06T04:08:04.330Z,72.49
2023-03-06T04:13:09.959Z,72.79
2023-03-06T04:18:16.334Z,72.87
2023-03-06T04:23:18.383Z,72.32
2023-03-06T04:28:22.021Z,72.21
2023-03-06T04:33:23.205Z,72.04
2023-03-06T04:38:24.037Z,72.12
2023-03-06T04:43:26.414Z,72.89
2023-03-06T04:48:27.117Z,71.39
2023-03-06T04:53:27.901Z,70.94
2023-03-06T04:58:29.927Z,71.76
2023-03-06T05:03:30.615Z,70.87
2023-03-06T05:08:32.006Z,71.43
2023-03-06T05:13:34.203Z,70.75
2023-03-06T05:18:36.165Z,71.04
2023-03-06T05:23:38.625Z,70.87
2023-03-06T05:28:41.431Z,70.91
2023-03-06T05:33:42.238Z,70.96
2023-03-06T05:38:43.301Z,71.90
2023-03-06T05:43:45.321Z,71.10
2023-03-06T05:48:46.929Z,70.47
2023-03-06T05:53:47.929Z,71.08
2023-03-06T05:58:50.933Z,70.41
2023-03-06T06:03:51.855Z,70.78
2023-03-06T06:08:52.558Z,70.92
2023-03-06T06:13:56.720Z,69.91
2023-03-06T06:18:58.544Z,69.91
2023-03-06T06:23:59.268Z,69.60
2023-03-06T06:29:01.249Z,69.07
2023-03-06T06:34:02.097Z,69.10
2023-03-06T06:39:03.570Z,68.39
2023-03-06T06:44:08.892Z,68.68
2023-03-06T06:49:09.645Z,68.42
2023-03-06T06:54:11.953Z,67.89
2023-03-06T06:59:17.223Z,67.16
2023-03-06T07:04:19.148Z,66.10
2023-03-06T07:09:20.127Z,67.04
2023-03-06T07:14:22.149Z,67.77
2023-03-06T07:19:22.888Z,66.06
2023-03-06T07:24:23.606Z,66.36
2023-03-06T07:29:25.599Z,66.03
2023-03-06T07:34:26.284Z,65.11
2023-03-06T07:39:28.168Z,65.75
2023-03-06T07:44:30.303Z,64.32
2023-03-06T07:49:30.936Z,63.99
2023-03-06T07:54:32.712Z,63.14
2023-03-06T07:59:35.760Z,63.99
2023-03-06T08:04:36.434Z,63.12
2023-03-06T08:09:37.210Z,62.35
2023-03-06T08:14:39.198Z,63.23
2023-03-06T08:19:39.910Z,63.10
2023-03-06T08:24:40.668Z,60.92
2023-03-06T08:29:42.681Z,60.70
2023-03-06T08:34:45.550Z,59.82
2023-03-06T08:39:46.236Z,60.34
2023-03-06T08:44:48.286Z,59.79
2023-03-06T08:49:49.156Z,60.45
2023-03-06T08:54:49.818Z,60.56
2023-03-06T08:59:51.822Z,60.38
2023-03-06T09:04:52.508Z,60.42
2023-03-06T09:09:56.946Z,60.11
2023-03-06T09:14:58.986Z,60.67
2023-03-06T09:19:59.735Z,60.68
2023-03-06T09:25:00.813Z,61.02
2023-03-06T09:30:02.998Z,59.99
2023-03-06T09:35:03.695Z,59.61
2023-03-06T09:40:06.851Z,59.94
2023-03-06T09:45:13.089Z,59.00
2023-03-06T09:50:29.553Z,58.61
2023-03-06T09:55:33.432Z,57.88
2023-03-06T10:00:39.693Z,58.26
2023-03-06T10:05:42.922Z,57.52
2023-03-06T10:10:47.955Z,55.71
2023-03-06T10:15:51.042Z,56.90
2023-03-06T10:21:13.450Z,58.53
2023-03-06T10:26:23.453Z,58.93
2023-03-06T10:31:27.752Z,58.19
2023-03-06T10:36:30.125Z,60.69
2023-03-06T10:41:32.964Z,61.18
2023-03-06T10:46:37.396Z,61.74
2023-03-06T10:51:38.244Z,62.38
2023-03-06T10:56:41.234Z,61.35
2023-03-06T11:01:45.335Z,61.23
2023-03-06T11:06:46.138Z,61.20
2023-03-06T11:11:46.885Z,60.87
2023-03-06T11:16:53.194Z,62.47
2023-03-06T11:22:02.321Z,63.17
2023-03-06T11:27:10.015Z,63.62
2023-03-06T11:32:17.532Z,65.86
2023-03-06T11:37:26.774Z,71.08
2023-03-06T11:42:30.506Z,73.52
2023-03-06T11:47:36.069Z,75.63
2023-03-06T11:52:47.781Z,75.79
2023-03-06T11:57:56.967Z,76.40
2023-03-06T12:03:25.142Z,76.67
2023-03-06T12:08:40.946Z,75.02
2023-03-06T12:13:58.311Z,72.98
2023-03-06T12:19:14.379Z,69.80
2023-03-06T12:24:30.400Z,70.18
2023-03-06T12:29:47.308Z,68.77
2023-03-06T12:35:06.081Z,67.86
2023-03-06T12:40:43.013Z,65.80
2023-03-06T12:45:45.381Z,68.85
2023-03-06T12:50:48.513Z,70.00
2023-03-06T12:55:50.757Z,68.86
2023-03-06T13:01:06.039Z,67.69
2023-03-06T13:06:26.465Z,66.72
2023-03-06T13:11:43.494Z,68.62
2023-03-06T13:16:44.274Z,75.00
2023-03-06T13:22:04.373Z,78.87
2023-03-06T13:27:10.459Z,80.77
2023-03-06T13:32:18.880Z,80.45
2023-03-06T13:37:51.881Z,81.35
2023-03-06T13:43:23.603Z,80.61
2023-03-06T13:48:43.684Z,80.06
2023-03-06T13:54:30.671Z,80.32
2023-03-06T14:00:13.651Z,80.52
2023-03-06T14:05:16.263Z,79.38
2023-03-06T14:10:23.847Z,80.10
2023-03-06T14:15:28.200Z,79.21
2023-03-06T14:20:36.423Z,77.11
2023-03-06T14:25:38.674Z,76.55
2023-03-06T14:30:50.429Z,76.42
2023-03-06T14:35:55.002Z,74.37
2023-03-06T14:40:58.403Z,76.15
2023-03-06T14:46:00.842Z,74.57
2023-03-06T14:51:02.820Z,74.77
2023-03-06T14:56:06.848Z,74.29
2023-03-06T15:01:10.461Z,74.69
2023-03-06T15:06:16.567Z,73.47
2023-03-06T15:11:18.662Z,72.73
2023-03-06T15:16:30.163Z,71.25
2023-03-06T15:21:36.193Z,70.15
2023-03-06T15:26:40.814Z,70.62
2023-03-06T15:31:43.367Z,70.19
2023-03-06T15:36:47.387Z,72.13
2023-03-06T15:41:49.494Z,71.34
2023-03-06T15:46:53.870Z,71.17
2023-03-06T15:51:59.862Z,71.47
2023-03-06T15:57:03.456Z,71.15
2023-03-06T16:02:14.417Z,70.98
2023-03-06T16:07:16.128Z,72.98
2023-03-06T16:12:20.036Z,78.20
2023-03-06T16:17:20.709Z,82.10
2023-03-06T16:22:21.379Z,84.27
2023-03-06T16:27:25.679Z,85.45
2023-03-06T16:32:28.696Z,86.54
2023-03-06T16:37:29.502Z,86.97
2023-03-06T16:42:32.022Z,87.36
2023-03-06T16:47:32.706Z,87.42
2023-03-06T16:52:33.504Z,87.44
2023-03-06T16:57:35.798Z,86.67
2023-03-06T17:02:36.659Z,86.43
2023-03-06T17:07:38.741Z,86.56
2023-03-06T17:12:40.809Z,86.84
2023-03-06T17:17:41.534Z,87.50
2023-03-06T17:22:45.406Z,87.54
2023-03-06T17:27:47.378Z,87.61
2023-03-06T17:32:48.071Z,87.86
2023-03-06T17:37:48.754Z,87.95
2023-03-06T17:42:50.872Z,88.38
2023-03-06T17:47:54.752Z,87.66
2023-03-06T17:52:55.424Z,87.37
2023-03-06T17:57:57.667Z,87.04
2023-03-06T18:02:58.341Z,87.09
2023-03-06T18:07:59.009Z,86.95
2023-03-06T18:13:00.966Z,87.01
2023-03-06T18:18:01.811Z,87.40
2023-03-06T18:23:03.775Z,87.13
2023-03-06T18:28:06.045Z,87.54
2023-03-06T18:33:06.813Z,84.35
2023-03-06T18:38:07.450Z,83.02
2023-03-06T18:43:09.419Z,83.12
2023-03-06T18:48:10.631Z,82.01
2023-03-06T18:53:11.340Z,82.29
2023-03-06T18:58:13.400Z,83.50
2023-03-06T19:03:14.496Z,82.22
2023-03-06T19:08:16.567Z,82.87
2023-03-06T19:13:18.684Z,82.85
2023-03-06T19:18:19.462Z,82.94
2023-03-06T19:23:21.195Z,83.31
2023-03-06T19:28:23.296Z,83.65
2023-03-06T19:33:23.969Z,83.51
2023-03-06T19:38:24.662Z,83.97
2023-03-06T19:43:26.776Z,84.20
2023-03-06T19:48:27.485Z,83.97
2023-03-06T19:53:28.320Z,84.71
2023-03-06T19:58:30.350Z,85.33
2023-03-06T20:03:31.158Z,85.58
2023-03-06T20:08:32.072Z,85.79
2023-03-06T20:13:34.204Z,85.25
2023-03-06T20:18:34.990Z,84.06
2023-03-06T20:23:36.073Z,83.13
2023-03-06T20:28:39.313Z,82.45
2023-03-06T20:33:40.474Z,82.79
2023-03-06T20:39:05.047Z,83.12
2023-03-06T20:44:08.989Z,83.61
2023-03-06T20:49:10.091Z,84.06
2023-03-06T20:54:13.847Z,84.47
2023-03-06T20:59:16.108Z,84.88
2023-03-06T21:04:17.357Z,84.40
2023-03-06T21:09:18.465Z,84.21
2023-03-06T21:14:20.585Z,84.83
2023-03-06T21:19:21.265Z,84.71
2023-03-06T21:24:22.406Z,83.85
2023-03-06T21:29:24.747Z,83.77
2023-03-06T21:34:25.473Z,84.18
2023-03-06T21:39:26.448Z,83.75
2023-03-06T21:44:28.607Z,83.51
2023-03-06T21:49:29.504Z,83.62
2023-03-06T21:54:30.201Z,83.92
2023-03-06T21:59:32.271Z,83.75
2023-03-06T22:04:33.058Z,84.17
2023-03-06T22:09:35.755Z,84.74
2023-03-06T22:14:37.862Z,84.81
2023-03-06T22:19:38.532Z,85.52
2023-03-06T22:24:39.380Z,86.17
2023-03-06T22:29:41.483Z,86.27
2023-03-06T22:34:42.264Z,86.40
2023-03-06T22:39:42.942Z,86.17
2023-03-06T22:44:45.183Z,86.38
2023-03-06T22:49:45.894Z,86.27
2023-03-06T22:54:46.649Z,86.37
2023-03-06T22:59:48.666Z,86.10
2023-03-06T23:04:52.232Z,86.85
2023-03-06T23:09:53.047Z,86.12
2023-03-06T23:15:13.932Z,86.37
2023-03-06T23:20:34.393Z,86.43
2023-03-06T23:25:53.920Z,86.15
2023-03-06T23:30:56.047Z,85.38
2023-03-06T23:35:56.758Z,85.08
2023-03-06T23:40:57.442Z,84.62
2023-03-06T23:46:00.198Z,84.25
2023-03-06T23:51:01.249Z,83.95
2023-03-06T23:56:02.280Z,83.73
